createdAt,value
2022-10-23T00:01:35.267Z,100526.36
2022-10-23T00:04:06.735Z,100527.87
2022-10-23T00:06:35.942Z,100529.91
2022-10-23T00:09:07.388Z,100527.27
2022-10-23T00:11:36.411Z,100519.85
2022-10-23T00:14:07.169Z,100515.95
2022-10-23T00:16:35.031Z,100521.81
2022-10-23T00:19:03.790Z,100521.88
2022-10-23T00:21:31.580Z,100522.19
2022-10-23T00:23:59.464Z,100526.27
2022-10-23T00:26:27.849Z,100530.39
2022-10-23T00:28:56.516Z,100533.52
2022-10-23T00:31:25.174Z,100533.39
2022-10-23T00:33:53.630Z,100539.14
2022-10-23T00:36:22.355Z,100546.09
2022-10-23T00:38:51.104Z,100545.00
2022-10-23T00:41:24.833Z,100545.70
2022-10-23T00:44:04.172Z,100542.75
2022-10-23T00:46:32.929Z,100541.02
2022-10-23T00:49:01.351Z,100548.13
2022-10-23T00:51:34.705Z,100553.55
2022-10-23T00:54:25.017Z,100553.02
2022-10-23T00:56:54.665Z,100553.84
2022-10-23T00:59:22.939Z,100559.71
2022-10-23T01:01:51.414Z,100566.77
2022-10-23T01:04:19.869Z,100562.91
2022-10-23T01:07:20.182Z,100560.97
2022-10-23T01:10:15.193Z,100561.66
2022-10-23T01:13:02.850Z,100570.84
2022-10-23T01:16:05.882Z,100576.05
2022-10-23T01:18:46.980Z,100576.68
2022-10-23T01:21:22.366Z,100581.91
2022-10-23T01:24:28.611Z,100593.02
2022-10-23T01:27:15.294Z,100602.06
2022-10-23T01:30:01.573Z,100598.23
2022-10-23T01:33:04.301Z,100601.21
2022-10-23T01:35:49.046Z,100604.73
2022-10-23T01:38:29.033Z,100614.39
2022-10-23T01:41:06.679Z,100619.11
2022-10-23T01:43:45.330Z,100620.75
2022-10-23T01:46:17.037Z,100625.48
2022-10-23T01:48:51.374Z,100621.52
2022-10-23T01:51:22.062Z,100622.02
2022-10-23T01:53:52.136Z,100620.43
2022-10-23T01:56:25.954Z,100622.91
2022-10-23T01:58:56.641Z,100628.29
2022-10-23T02:01:29.528Z,100631.57
2022-10-23T02:06:32.819Z,100635.63
2022-10-23T02:09:00.871Z,100634.14
2022-10-23T02:11:31.429Z,100633.77
2022-10-23T02:14:11.926Z,100630.42
2022-10-23T02:16:57.576Z,100634.09
2022-10-23T02:19:33.280Z,100630.42
2022-10-23T02:22:35.071Z,100632.66
2022-10-23T02:25:13.221Z,100641.09
2022-10-23T02:27:48.263Z,100640.85
2022-10-23T02:30:19.244Z,100643.05
2022-10-23T02:32:54.831Z,100644.98
2022-10-23T02:35:24.822Z,100653.29
2022-10-23T02:38:00.974Z,100656.41
2022-10-23T02:40:43.187Z,100660.04
2022-10-23T02:43:10.799Z,100661.49
2022-10-23T02:45:59.128Z,100662.40
2022-10-23T02:48:39.257Z,100668.73
2022-10-23T02:51:50.077Z,100668.81
2022-10-23T02:54:29.907Z,100676.03
2022-10-23T02:57:06.162Z,100680.30
2022-10-23T02:59:43.842Z,100682.29
2022-10-23T03:02:41.306Z,100682.17
2022-10-23T03:05:14.360Z,100685.11
2022-10-23T03:07:44.152Z,100686.77
2022-10-23T03:10:14.174Z,100693.52
2022-10-23T03:12:42.661Z,100695.15
2022-10-23T03:15:12.536Z,100697.98
2022-10-23T03:17:41.110Z,100698.54
2022-10-23T03:20:10.451Z,100701.14
2022-10-23T03:22:38.736Z,100701.00
2022-10-23T03:25:08.277Z,100706.85
2022-10-23T03:27:36.893Z,100708.35
2022-10-23T03:30:07.319Z,100707.06
2022-10-23T03:32:35.692Z,100711.56
2022-10-23T03:35:04.255Z,100716.21
2022-10-23T03:37:32.820Z,100722.73
2022-10-23T03:40:07.689Z,100730.61
2022-10-23T03:42:37.204Z,100735.66
2022-10-23T03:45:07.805Z,100737.66
2022-10-23T03:47:43.059Z,100741.27
2022-10-23T03:50:13.533Z,100743.58
2022-10-23T03:52:41.466Z,100740.86
2022-10-23T03:55:10.016Z,100740.71
2022-10-23T03:57:38.291Z,100744.44
2022-10-23T04:00:07.203Z,100742.84
2022-10-23T04:02:45.317Z,100747.10
2022-10-23T04:05:13.813Z,100752.27
2022-10-23T04:07:42.108Z,100751.92
2022-10-23T04:10:11.341Z,100749.42
2022-10-23T04:12:40.897Z,100753.08
2022-10-23T04:15:09.201Z,100757.98
2022-10-23T04:17:37.184Z,100762.61
2022-10-23T04:20:05.819Z,100766.09
2022-10-23T04:22:33.605Z,100764.71
2022-10-23T04:25:01.533Z,100759.77
2022-10-23T04:27:30.922Z,100755.80
2022-10-23T04:29:59.224Z,100750.86
2022-10-23T04:32:27.577Z,100757.61
2022-10-23T04:34:55.282Z,100762.72
2022-10-23T04:37:23.957Z,100767.39
2022-10-23T04:39:51.781Z,100769.46
2022-10-23T04:42:19.777Z,100768.20
2022-10-23T04:44:48.382Z,100771.88
2022-10-23T04:47:16.201Z,100771.28
2022-10-23T04:49:56.259Z,100768.09
2022-10-23T04:52:57.765Z,100768.33
2022-10-23T04:55:25.525Z,100769.45
2022-10-23T04:58:27.615Z,100770.44
2022-10-23T05:00:58.430Z,100769.59
2022-10-23T05:03:27.629Z,100774.12
2022-10-23T05:05:56.314Z,100779.96
2022-10-23T05:08:53.242Z,100784.44
2022-10-23T05:11:36.607Z,100790.67
2022-10-23T05:14:07.867Z,100792.02
2022-10-23T05:17:00.033Z,100792.75
2022-10-23T05:19:34.785Z,100793.85
2022-10-23T05:22:02.590Z,100793.30
2022-10-23T05:24:49.677Z,100796.55
2022-10-23T05:27:21.151Z,100799.65
2022-10-23T05:29:49.004Z,100807.52
2022-10-23T05:34:54.524Z,100812.91
2022-10-23T05:37:25.819Z,100817.84
2022-10-23T05:40:00.742Z,100820.42
2022-10-23T05:42:28.739Z,100825.32
2022-10-23T05:44:58.075Z,100825.30
2022-10-23T05:47:46.884Z,100829.58
2022-10-23T05:50:36.930Z,100832.18
2022-10-23T05:53:42.452Z,100836.40
2022-10-23T05:56:24.763Z,100844.10
2022-10-23T05:59:03.303Z,100846.54
2022-10-23T06:01:51.443Z,100852.34
2022-10-23T06:04:42.627Z,100856.95
2022-10-23T06:07:13.293Z,100858.02
2022-10-23T06:09:44.077Z,100861.59
2022-10-23T06:12:11.881Z,100865.17
2022-10-23T06:15:08.571Z,100868.27
2022-10-23T06:18:01.214Z,100874.52
2022-10-23T06:20:36.269Z,100880.85
2022-10-23T06:23:09.440Z,100885.63
2022-10-23T06:26:08.885Z,100885.52
2022-10-23T06:28:49.674Z,100888.77
2022-10-23T06:31:26.566Z,100886.23
2022-10-23T06:33:56.092Z,100894.94
2022-10-23T06:36:24.208Z,100905.99
2022-10-23T06:38:53.814Z,100910.25
2022-10-23T06:41:23.182Z,100905.45
2022-10-23T06:43:55.138Z,100901.98
2022-10-23T06:46:30.193Z,100902.48
2022-10-23T06:49:27.715Z,100904.15
2022-10-23T06:51:56.176Z,100908.58
2022-10-23T06:54:24.154Z,100911.73
2022-10-23T06:56:55.574Z,100908.66
2022-10-23T06:59:30.705Z,100907.77
2022-10-23T07:02:24.235Z,100904.60
2022-10-23T07:04:52.078Z,100907.02
2022-10-23T07:07:20.362Z,100907.71
2022-10-23T07:09:49.592Z,100910.95
2022-10-23T07:12:40.909Z,100911.69
2022-10-23T07:15:27.872Z,100914.85
2022-10-23T07:17:56.354Z,100909.48
2022-10-23T07:20:24.605Z,100907.38
2022-10-23T07:22:54.525Z,100912.00
2022-10-23T07:25:29.155Z,100910.15
2022-10-23T07:27:57.581Z,100912.98
2022-10-23T07:30:26.534Z,100916.79
2022-10-23T07:32:55.753Z,100917.39
2022-10-23T07:35:52.007Z,100917.11
2022-10-23T07:38:25.689Z,100912.55
2022-10-23T07:40:58.204Z,100909.09
2022-10-23T07:43:26.595Z,100913.15
2022-10-23T07:45:55.221Z,100915.29
2022-10-23T07:48:31.190Z,100914.58
2022-10-23T07:51:08.380Z,100910.29
2022-10-23T07:53:39.312Z,100913.48
2022-10-23T07:56:26.269Z,100909.96
2022-10-23T07:59:14.570Z,100908.48
2022-10-23T08:01:45.873Z,100908.70
2022-10-23T08:04:14.383Z,100909.57
2022-10-23T08:06:56.411Z,100913.04
2022-10-23T08:09:25.209Z,100912.13
2022-10-23T08:11:52.988Z,100916.67
2022-10-23T08:14:21.023Z,100913.19
2022-10-23T08:16:49.313Z,100914.02
2022-10-23T08:19:19.661Z,100920.31
2022-10-23T08:21:48.485Z,100917.43
2022-10-23T08:24:17.969Z,100918.98
2022-10-23T08:26:46.380Z,100918.05
2022-10-23T08:29:14.632Z,100924.72
2022-10-23T08:31:42.799Z,100930.66
2022-10-23T08:34:25.853Z,100938.05
2022-10-23T08:36:54.286Z,100946.33
2022-10-23T08:39:22.086Z,100951.83
2022-10-23T08:42:03.095Z,100951.29
2022-10-23T08:44:36.476Z,100949.27
2022-10-23T08:47:42.786Z,100950.23
2022-10-23T08:50:47.456Z,100958.46
2022-10-23T08:53:41.189Z,100963.36
2022-10-23T08:56:37.903Z,100965.70
2022-10-23T08:59:28.240Z,100978.77
2022-10-23T09:02:05.451Z,100976.27
2022-10-23T09:04:34.503Z,100971.42
2022-10-23T09:07:32.319Z,100965.56
2022-10-23T09:10:06.187Z,100968.24
2022-10-23T09:12:34.115Z,100973.77
2022-10-23T09:15:17.353Z,100982.22
2022-10-23T09:17:46.171Z,100982.27
2022-10-23T09:20:22.394Z,100985.45
2022-10-23T09:22:54.942Z,100983.44
2022-10-23T09:25:26.993Z,100985.39
2022-10-23T09:28:00.194Z,100988.08
2022-10-23T09:30:39.176Z,100996.84
2022-10-23T09:33:20.141Z,101001.35
2022-10-23T09:35:59.994Z,101000.36
2022-10-23T09:38:27.763Z,100998.35
2022-10-23T09:40:56.238Z,100997.79
2022-10-23T09:43:27.422Z,100992.39
2022-10-23T09:46:03.070Z,101000.48
2022-10-23T09:48:31.243Z,101001.80
2022-10-23T09:51:02.190Z,100996.41
2022-10-23T09:53:35.885Z,100994.60
2022-10-23T09:56:24.820Z,100987.27
2022-10-23T09:58:59.298Z,100983.30
2022-10-23T10:01:33.181Z,100979.48
2022-10-23T10:04:17.565Z,100985.55
2022-10-23T10:06:46.189Z,100987.86
2022-10-23T10:09:16.542Z,100992.12
2022-10-23T10:11:49.993Z,100991.02
2022-10-23T10:14:39.388Z,100981.88
2022-10-23T10:17:19.921Z,100981.87
2022-10-23T10:19:50.675Z,100988.44
2022-10-23T10:22:42.530Z,100988.05
2022-10-23T10:25:21.446Z,100985.81
2022-10-23T10:28:05.302Z,100985.71
2022-10-23T10:30:56.510Z,100987.48
2022-10-23T10:33:47.720Z,100978.47
2022-10-23T10:36:30.671Z,100980.28
2022-10-23T10:39:03.948Z,100985.13
2022-10-23T10:41:56.076Z,100983.61
2022-10-23T10:44:53.402Z,100980.36
2022-10-23T10:47:29.309Z,100973.36
2022-10-23T10:50:23.061Z,100968.16
2022-10-23T10:53:24.272Z,100964.52
2022-10-23T10:55:55.576Z,100960.79
2022-10-23T10:58:32.022Z,100958.36
2022-10-23T11:01:03.437Z,100966.30
2022-10-23T11:03:40.286Z,100964.38
2022-10-23T11:06:16.242Z,100965.12
2022-10-23T11:08:56.537Z,100963.34
2022-10-23T11:11:45.942Z,100962.53
2022-10-23T11:14:19.537Z,100958.29
2022-10-23T11:16:53.207Z,100958.94
2022-10-23T11:19:43.297Z,100955.35
2022-10-23T11:22:24.300Z,100956.52
2022-10-23T11:25:32.195Z,100950.75
2022-10-23T11:28:23.690Z,100950.43
2022-10-23T11:31:22.527Z,100946.92
2022-10-23T11:34:24.335Z,100951.77
2022-10-23T11:36:58.758Z,100940.42
2022-10-23T11:39:29.682Z,100934.04
2022-10-23T11:42:08.834Z,100928.14
2022-10-23T11:44:36.538Z,100927.81
2022-10-23T11:47:39.649Z,100928.34
2022-10-23T11:50:07.935Z,100933.55
2022-10-23T11:52:45.447Z,100930.98
2022-10-23T11:55:24.319Z,100933.23
2022-10-23T11:58:34.912Z,100929.23
2022-10-23T12:01:18.327Z,100927.22
2022-10-23T12:03:54.462Z,100916.10
2022-10-23T12:06:28.485Z,100907.96
2022-10-23T12:09:06.775Z,100912.02
2022-10-23T12:12:02.757Z,100915.65
2022-10-23T12:14:43.471Z,100911.18
2022-10-23T12:17:41.710Z,100908.65
2022-10-23T12:20:22.807Z,100907.72
2022-10-23T12:23:20.932Z,100910.10
2022-10-23T12:26:16.404Z,100910.19
2022-10-23T12:29:12.093Z,100905.04
2022-10-23T12:31:59.139Z,100904.77
2022-10-23T12:35:08.359Z,100899.10
2022-10-23T12:38:00.656Z,100896.17
2022-10-23T12:40:30.220Z,100890.36
2022-10-23T12:43:00.846Z,100891.63
2022-10-23T12:45:34.273Z,100890.66
2022-10-23T12:48:02.057Z,100886.52
2022-10-23T12:50:32.161Z,100886.73
2022-10-23T12:53:07.690Z,100879.60
2022-10-23T12:55:54.826Z,100884.18
2022-10-23T12:58:26.249Z,100879.39
2022-10-23T13:01:00.313Z,100876.14
2022-10-23T13:03:30.600Z,100877.05
2022-10-23T13:06:00.383Z,100868.60
2022-10-23T13:08:41.122Z,100861.05
2022-10-23T13:11:30.767Z,100856.19
2022-10-23T13:14:01.712Z,100861.00
2022-10-23T13:16:29.591Z,100861.17
2022-10-23T13:18:57.337Z,100864.70
2022-10-23T13:21:28.648Z,100860.82
2022-10-23T13:23:56.786Z,100859.95
2022-10-23T13:26:28.480Z,100860.36
2022-10-23T13:28:57.557Z,100857.20
2022-10-23T13:31:32.243Z,100856.59
2022-10-23T13:34:00.150Z,100857.98
2022-10-23T13:36:29.937Z,100855.36
2022-10-23T13:39:00.104Z,100855.58
2022-10-23T13:41:34.150Z,100848.37
2022-10-23T13:44:01.941Z,100844.90
2022-10-23T13:46:30.005Z,100839.72
2022-10-23T13:48:58.033Z,100842.56
2022-10-23T13:51:28.852Z,100841.41
2022-10-23T13:53:57.630Z,100842.70
2022-10-23T13:56:27.471Z,100843.38
2022-10-23T13:58:55.273Z,100845.70
2022-10-23T14:01:26.305Z,100844.33
2022-10-23T14:03:55.866Z,100846.50
2022-10-23T14:06:23.989Z,100845.77
2022-10-23T14:08:52.338Z,100843.66
2022-10-23T14:11:20.765Z,100841.83
2022-10-23T14:13:49.553Z,100836.41
2022-10-23T14:16:19.655Z,100836.30
2022-10-23T14:18:48.134Z,100830.35
2022-10-23T14:21:19.839Z,100825.40
2022-10-23T14:23:48.657Z,100826.48
2022-10-23T14:26:21.836Z,100821.42
2022-10-23T14:28:53.389Z,100823.91
2022-10-23T14:31:22.284Z,100823.28
2022-10-23T14:33:56.229Z,100830.90
2022-10-23T14:36:28.254Z,100833.30
2022-10-23T14:39:02.253Z,100822.27
2022-10-23T14:41:29.962Z,100824.23
2022-10-23T14:43:57.757Z,100818.59
2022-10-23T14:46:25.639Z,100819.84
2022-10-23T14:48:57.521Z,100819.50
2022-10-23T14:51:32.572Z,100823.38
2022-10-23T14:54:06.246Z,100826.00
2022-10-23T14:56:37.791Z,100822.30
2022-10-23T14:59:05.685Z,100821.06
2022-10-23T15:01:43.685Z,100817.79
2022-10-23T15:04:15.198Z,100818.59
2022-10-23T15:06:44.298Z,100821.59
2022-10-23T15:09:12.196Z,100821.33
2022-10-23T15:11:40.003Z,100816.73
2022-10-23T15:14:08.266Z,100819.31
2022-10-23T15:16:41.329Z,100819.55
2022-10-23T15:19:18.091Z,100816.71
2022-10-23T15:21:48.104Z,100819.21
2022-10-23T15:24:17.320Z,100822.83
2022-10-23T15:26:45.282Z,100816.92
2022-10-23T15:29:14.791Z,100815.75
2022-10-23T15:31:49.183Z,100818.42
2022-10-23T15:34:20.837Z,100819.77
2022-10-23T15:36:50.071Z,100815.60
2022-10-23T15:39:26.024Z,100811.44
2022-10-23T15:41:55.949Z,100809.59
2022-10-23T15:44:26.709Z,100808.92
2022-10-23T15:46:57.068Z,100803.86
2022-10-23T15:49:26.548Z,100802.02
2022-10-23T15:51:54.441Z,100801.45
2022-10-23T15:54:22.874Z,100800.06
2022-10-23T15:56:53.134Z,100802.52
2022-10-23T15:59:23.691Z,100801.92
2022-10-23T16:01:52.105Z,100799.85
2022-10-23T16:04:20.123Z,100795.81
2022-10-23T16:06:48.614Z,100794.23
2022-10-23T16:09:16.517Z,100794.41
2022-10-23T16:11:44.535Z,100789.23
2022-10-23T16:14:14.570Z,100796.11
2022-10-23T16:16:42.829Z,100796.11
2022-10-23T16:19:11.536Z,100799.20
2022-10-23T16:21:39.433Z,100800.50
2022-10-23T16:24:08.226Z,100801.48
2022-10-23T16:26:36.841Z,100803.75
2022-10-23T16:29:07.430Z,100801.09
2022-10-23T16:31:35.653Z,100803.38
2022-10-23T16:34:05.272Z,100802.70
2022-10-23T16:36:34.482Z,100797.63
2022-10-23T16:39:14.348Z,100798.20
2022-10-23T16:42:20.469Z,100797.33
2022-10-23T16:45:02.351Z,100797.13
2022-10-23T16:47:33.799Z,100801.65
2022-10-23T16:50:01.601Z,100802.79
2022-10-23T16:52:29.960Z,100803.05
2022-10-23T16:54:57.827Z,100808.38
2022-10-23T16:57:27.885Z,100805.20
2022-10-23T16:59:55.680Z,100804.60
2022-10-23T17:02:23.604Z,100804.95
2022-10-23T17:04:51.654Z,100803.38
2022-10-23T17:07:19.601Z,100805.80
2022-10-23T17:09:47.486Z,100812.20
2022-10-23T17:12:16.753Z,100814.26
2022-10-23T17:14:44.643Z,100816.45
2022-10-23T17:17:12.432Z,100813.06
2022-10-23T17:19:45.981Z,100817.77
2022-10-23T17:22:16.426Z,100824.93
2022-10-23T17:24:46.434Z,100825.48
2022-10-23T17:27:16.956Z,100830.29
2022-10-23T17:29:44.802Z,100829.59
2022-10-23T17:32:12.758Z,100830.02
2022-10-23T17:34:40.575Z,100828.00
2022-10-23T17:37:10.131Z,100826.53
2022-10-23T17:39:37.954Z,100823.17
2022-10-23T17:42:16.334Z,100824.92
2022-10-23T17:44:50.690Z,100819.94
2022-10-23T17:47:18.507Z,100818.63
2022-10-23T17:49:46.347Z,100815.61
2022-10-23T17:52:15.027Z,100813.63
2022-10-23T17:54:42.874Z,100818.94
2022-10-23T17:57:10.791Z,100826.36
2022-10-23T17:59:39.159Z,100821.52
2022-10-23T18:02:07.197Z,100822.09
2022-10-23T18:04:35.103Z,100822.72
2022-10-23T18:07:02.758Z,100822.09
2022-10-23T18:09:30.631Z,100822.27
2022-10-23T18:11:58.446Z,100820.73
2022-10-23T18:14:29.424Z,100812.26
2022-10-23T18:16:57.722Z,100810.45
2022-10-23T18:19:25.463Z,100807.02
2022-10-23T18:21:53.330Z,100802.17
2022-10-23T18:24:21.285Z,100794.36
2022-10-23T18:26:49.261Z,100784.52
2022-10-23T18:29:17.666Z,100778.27
2022-10-23T18:31:48.099Z,100785.36
2022-10-23T18:34:16.076Z,100803.33
2022-10-23T18:36:44.102Z,100806.52
2022-10-23T18:39:14.999Z,100808.74
2022-10-23T18:41:44.954Z,100816.46
2022-10-23T18:44:17.351Z,100818.26
2022-10-23T18:46:46.407Z,100823.20
2022-10-23T18:49:14.890Z,100826.01
2022-10-23T18:51:42.997Z,100822.36
2022-10-23T18:54:14.116Z,100818.06
2022-10-23T18:56:42.998Z,100820.86
2022-10-23T18:59:17.274Z,100820.84
2022-10-23T19:01:45.122Z,100819.77
2022-10-23T19:04:15.798Z,100813.45
2022-10-23T19:06:44.136Z,100804.16
2022-10-23T19:09:13.995Z,100800.64
2022-10-23T19:11:42.833Z,100800.58
2022-10-23T19:14:11.305Z,100800.73
2022-10-23T19:17:08.649Z,100798.80
2022-10-23T19:19:48.632Z,100791.73
2022-10-23T19:22:16.994Z,100785.87
2022-10-23T19:24:57.947Z,100787.52
2022-10-23T19:27:27.001Z,100783.80
2022-10-23T19:29:55.931Z,100780.11
2022-10-23T19:32:23.839Z,100780.52
2022-10-23T19:34:51.747Z,100779.70
2022-10-23T19:37:20.130Z,100781.20
2022-10-23T19:39:47.856Z,100781.70
2022-10-23T19:42:15.748Z,100782.02
2022-10-23T19:44:43.594Z,100784.19
2022-10-23T19:47:11.483Z,100777.96
2022-10-23T19:49:39.437Z,100771.13
2022-10-23T19:52:07.378Z,100767.24
2022-10-23T19:54:35.295Z,100766.52
2022-10-23T19:57:03.334Z,100766.77
2022-10-23T19:59:31.066Z,100761.14
2022-10-23T20:01:59.226Z,100760.45
2022-10-23T20:04:28.833Z,100760.61
2022-10-23T20:06:56.686Z,100763.34
2022-10-23T20:09:24.469Z,100768.19
2022-10-23T20:11:52.336Z,100765.80
2022-10-23T20:14:20.120Z,100764.30
2022-10-23T20:16:50.169Z,100771.33
2022-10-23T20:19:21.264Z,100775.35
2022-10-23T20:21:49.290Z,100781.52
2022-10-23T20:24:19.327Z,100772.98
2022-10-23T20:26:51.042Z,100763.63
2022-10-23T20:29:19.021Z,100766.85
2022-10-23T20:31:47.921Z,100766.60
2022-10-23T20:34:16.032Z,100768.33
2022-10-23T20:36:46.944Z,100767.54
2022-10-23T20:39:18.990Z,100764.02
2022-10-23T20:41:47.624Z,100766.80
2022-10-23T20:46:49.873Z,100768.34
2022-10-23T20:49:18.134Z,100765.80
2022-10-23T20:51:54.113Z,100762.99
2022-10-23T20:54:25.429Z,100763.10
2022-10-23T20:56:53.198Z,100769.48
2022-10-23T20:59:21.085Z,100765.41
2022-10-23T21:01:51.306Z,100770.65
2022-10-23T21:04:22.508Z,100769.05
2022-10-23T21:07:10.713Z,100771.54
2022-10-23T21:09:40.063Z,100768.40
2022-10-23T21:12:08.539Z,100764.92
2022-10-23T21:14:36.565Z,100752.54
2022-10-23T21:17:05.179Z,100749.42
2022-10-23T21:19:33.251Z,100750.56
2022-10-23T21:22:01.211Z,100751.17
2022-10-23T21:24:29.028Z,100746.05
2022-10-23T21:26:56.934Z,100750.92
2022-10-23T21:29:24.814Z,100741.38
2022-10-23T21:31:59.195Z,100737.94
2022-10-23T21:34:27.972Z,100736.16
2022-10-23T21:37:13.800Z,100732.22
2022-10-23T21:39:43.677Z,100737.58
2022-10-23T21:42:14.904Z,100743.98
2022-10-23T21:44:42.978Z,100747.41
2022-10-23T21:47:10.908Z,100743.66
2022-10-23T21:49:38.667Z,100740.16
2022-10-23T21:52:06.591Z,100738.61
2022-10-23T21:54:34.406Z,100742.77
2022-10-23T21:57:04.137Z,100737.94
2022-10-23T21:59:35.490Z,100743.73
2022-10-23T22:02:04.357Z,100745.20
2022-10-23T22:04:32.240Z,100739.48
2022-10-23T22:07:00.339Z,100737.98
2022-10-23T22:09:28.976Z,100732.27
2022-10-23T22:11:57.333Z,100728.54
2022-10-23T22:14:27.314Z,100733.08
2022-10-23T22:16:55.945Z,100727.33
2022-10-23T22:19:23.782Z,100722.81
2022-10-23T22:21:51.704Z,100722.69
2022-10-23T22:24:20.125Z,100726.89
2022-10-23T22:26:51.465Z,100731.01
2022-10-23T22:29:22.427Z,100732.98
2022-10-23T22:31:51.898Z,100735.79
2022-10-23T22:34:48.424Z,100738.57
2022-10-23T22:37:14.828Z,100734.94
2022-10-23T22:39:42.787Z,100728.73
2022-10-23T22:42:11.057Z,100717.95
2022-10-23T22:44:38.774Z,100712.95
2022-10-23T22:47:06.882Z,100707.66
2022-10-23T22:49:36.039Z,100703.27
2022-10-23T22:52:04.758Z,100697.13
2022-10-23T22:54:32.646Z,100700.96
2022-10-23T22:57:00.810Z,100697.04
2022-10-23T22:59:28.611Z,100693.15
2022-10-23T23:01:56.365Z,100694.45
2022-10-23T23:04:39.854Z,100698.98
2022-10-23T23:07:11.983Z,100697.67
2022-10-23T23:09:42.536Z,100696.14
2022-10-23T23:12:13.572Z,100696.02
2022-10-23T23:14:42.435Z,100693.91
2022-10-23T23:17:10.770Z,100691.63
2022-10-23T23:19:38.603Z,100693.68
2022-10-23T23:22:06.530Z,100696.36
2022-10-23T23:24:34.441Z,100698.77
2022-10-23T23:27:02.410Z,100696.17
2022-10-23T23:29:30.163Z,100700.73
2022-10-23T23:31:58.114Z,100702.17
2022-10-23T23:34:26.463Z,100702.70
2022-10-23T23:36:54.264Z,100706.98
2022-10-23T23:39:22.024Z,100710.34
2022-10-23T23:41:49.866Z,100707.61
2022-10-23T23:44:17.586Z,100705.09
2022-10-23T23:46:45.315Z,100704.56
2022-10-23T23:49:13.105Z,100697.33
2022-10-23T23:51:41.094Z,100692.22
2022-10-23T23:54:08.838Z,100692.20
2022-10-23T23:56:36.673Z,100696.77
2022-10-23T23:59:04.686Z,100694.03
